createdAt,value
2018-07-04T00:00:47.543Z,24.10
2018-07-04T00:03:28.926Z,24.10
2018-07-04T00:06:10.604Z,24.10
2018-07-04T00:08:51.291Z,24.00
2018-07-04T00:11:31.991Z,23.90
2018-07-04T00:14:12.670Z,23.80
2018-07-04T00:16:54.624Z,23.80
2018-07-04T00:19:37.077Z,23.70
2018-07-04T00:22:17.062Z,23.60
2018-07-04T00:30:29.013Z,23.70
2018-07-04T00:33:11.580Z,23.70
2018-07-04T00:35:51.417Z,23.70
2018-07-04T00:38:33.016Z,23.70
2018-07-04T00:41:13.502Z,23.60
2018-07-04T00:43:55.301Z,23.70
2018-07-04T00:46:35.297Z,23.70
2018-07-04T00:49:16.248Z,23.60
2018-07-04T00:51:58.554Z,23.50
2018-07-04T00:54:38.388Z,23.40
2018-07-04T00:57:18.166Z,23.30
2018-07-04T00:59:59.612Z,23.20
2018-07-04T01:02:42.565Z,23.10
2018-07-04T01:05:22.125Z,23.10
2018-07-04T01:08:01.875Z,23.10
2018-07-04T01:10:41.589Z,23.10
2018-07-04T01:13:21.418Z,23.00
2018-07-04T01:18:34.840Z,22.90
2018-07-04T01:21:15.974Z,22.80
2018-07-04T01:23:56.813Z,22.60
2018-07-04T01:26:36.263Z,22.60
2018-07-04T01:29:15.988Z,22.50
2018-07-04T01:31:55.689Z,22.40
2018-07-04T01:34:36.067Z,22.30
2018-07-04T01:37:18.133Z,22.20
2018-07-04T01:39:57.833Z,22.10
2018-07-04T01:42:37.602Z,22.10
2018-07-04T01:45:19.164Z,22.00
2018-07-04T01:47:58.951Z,21.90
2018-07-04T01:50:39.045Z,21.90
2018-07-04T01:53:19.495Z,21.80
2018-07-04T01:56:01.815Z,21.80
2018-07-04T01:58:42.253Z,21.80
2018-07-04T02:03:58.241Z,21.70
2018-07-04T02:06:38.622Z,21.70
2018-07-04T02:09:20.593Z,21.60
2018-07-04T02:12:00.362Z,21.60
2018-07-04T02:14:40.058Z,21.50
2018-07-04T02:17:19.833Z,21.50
2018-07-04T02:20:01.106Z,21.40
2018-07-04T02:22:40.709Z,21.40
2018-07-04T02:25:20.349Z,21.30
2018-07-04T02:28:00.225Z,21.40
2018-07-04T02:30:41.149Z,21.40
2018-07-04T02:33:21.970Z,21.30
2018-07-04T02:36:01.843Z,21.30
2018-07-04T02:38:41.696Z,21.20
2018-07-04T02:41:21.880Z,21.20
2018-07-04T02:44:03.350Z,21.20
2018-07-04T02:46:44.963Z,21.10
2018-07-04T02:49:25.274Z,21.00
2018-07-04T03:02:12.557Z,20.80
2018-07-04T03:07:37.647Z,20.60
2018-07-04T03:10:17.335Z,20.50
2018-07-04T03:12:57.080Z,20.50
2018-07-04T03:15:36.645Z,20.50
2018-07-04T03:18:19.886Z,20.50
2018-07-04T03:21:03.888Z,20.50
2018-07-04T03:23:44.454Z,20.50
2018-07-04T03:26:24.957Z,20.60
2018-07-04T03:29:09.607Z,20.50
2018-07-04T03:31:50.936Z,20.50
2018-07-04T03:34:30.533Z,20.40
2018-07-04T03:37:12.985Z,20.40
2018-07-04T03:39:56.351Z,20.30
2018-07-04T03:42:41.369Z,20.20
2018-07-04T03:45:21.065Z,20.20
2018-07-04T03:48:04.989Z,20.20
2018-07-04T03:50:44.896Z,20.10
2018-07-04T03:53:24.458Z,20.10
2018-07-04T03:56:04.299Z,20.00
2018-07-04T03:58:45.653Z,20.00
2018-07-04T04:01:28.107Z,19.90
2018-07-04T04:04:07.829Z,20.00
2018-07-04T04:06:47.392Z,20.00
2018-07-04T04:09:27.692Z,19.90
2018-07-04T04:12:10.537Z,19.80
2018-07-04T04:14:51.070Z,19.80
2018-07-04T04:17:37.918Z,19.90
2018-07-04T04:22:56.362Z,19.90
2018-07-04T04:25:37.363Z,19.80
2018-07-04T04:28:17.644Z,19.80
2018-07-04T04:30:58.275Z,19.70
2018-07-04T04:33:38.023Z,19.70
2018-07-04T04:36:23.380Z,19.80
2018-07-04T04:39:05.240Z,19.80
2018-07-04T04:41:45.667Z,19.80
2018-07-04T04:44:26.070Z,19.80
2018-07-04T04:47:06.246Z,19.90
2018-07-04T04:49:48.211Z,19.90
2018-07-04T04:52:28.303Z,20.00
2018-07-04T04:55:09.394Z,19.90
2018-07-04T05:00:25.801Z,20.00
2018-07-04T05:03:06.889Z,20.00
2018-07-04T05:05:47.713Z,20.10
2018-07-04T05:08:27.265Z,20.20
2018-07-04T05:11:06.998Z,20.30
2018-07-04T05:13:46.609Z,20.30
2018-07-04T05:16:26.619Z,20.30
2018-07-04T05:19:06.123Z,20.50
2018-07-04T05:21:45.713Z,20.50
2018-07-04T05:24:25.269Z,20.60
2018-07-04T05:27:04.874Z,20.70
2018-07-04T05:29:44.277Z,20.80
2018-07-04T05:32:23.928Z,20.90
2018-07-04T05:35:03.614Z,21.00
2018-07-04T05:37:43.988Z,21.10
2018-07-04T05:40:24.309Z,21.20
2018-07-04T05:43:04.006Z,21.30
2018-07-04T05:45:44.392Z,21.30
2018-07-04T05:48:24.031Z,21.40
2018-07-04T05:51:03.603Z,21.50
2018-07-04T05:53:43.216Z,21.60
2018-07-04T05:56:23.742Z,21.80
2018-07-04T05:59:03.488Z,22.20
2018-07-04T06:01:43.144Z,22.70
2018-07-04T06:04:22.917Z,23.40
2018-07-04T06:07:02.485Z,24.00
2018-07-04T06:09:42.247Z,24.60
2018-07-04T06:12:22.002Z,25.20
2018-07-04T06:15:01.569Z,25.70
2018-07-04T06:17:43.201Z,26.00
2018-07-04T06:20:22.649Z,26.60
2018-07-04T06:23:02.220Z,27.10
2018-07-04T06:30:49.598Z,28.30
2018-07-04T06:33:29.250Z,28.70
2018-07-04T06:36:08.747Z,29.10
2018-07-04T06:38:36.232Z,29.40
2018-07-04T06:43:41.934Z,30.20
2018-07-04T06:46:09.277Z,30.50
2018-07-04T06:48:37.208Z,30.80
2018-07-04T06:51:08.938Z,31.00
2018-07-04T06:53:38.031Z,31.30
2018-07-04T06:56:06.990Z,31.50
2018-07-04T06:58:40.165Z,31.60
2018-07-04T07:01:08.561Z,31.80
2018-07-04T07:03:50.452Z,32.00
2018-07-04T07:06:32.010Z,32.20
2018-07-04T07:09:13.087Z,32.20
2018-07-04T07:11:54.401Z,32.40
2018-07-04T07:14:35.966Z,32.50
2018-07-04T07:17:17.606Z,32.50
2018-07-04T07:19:57.587Z,32.60
2018-07-04T07:22:39.516Z,32.50
2018-07-04T07:25:27.690Z,32.60
2018-07-04T07:28:08.347Z,32.70
2018-07-04T07:30:47.882Z,32.80
2018-07-04T07:33:27.662Z,32.80
2018-07-04T07:36:15.507Z,32.80
2018-07-04T07:38:55.414Z,32.80
2018-07-04T07:41:34.962Z,32.80
2018-07-04T07:44:14.494Z,32.90
2018-07-04T07:46:54.224Z,33.00
2018-07-04T07:49:34.641Z,33.00
2018-07-04T07:52:14.340Z,33.10
2018-07-04T07:54:54.177Z,33.10
2018-07-04T07:57:33.833Z,33.00
2018-07-04T08:00:13.431Z,33.00
2018-07-04T08:02:53.177Z,33.00
2018-07-04T08:05:32.736Z,33.00
2018-07-04T08:08:12.297Z,33.10
2018-07-04T08:10:51.957Z,33.00
2018-07-04T08:13:31.985Z,33.00
2018-07-04T08:16:11.730Z,32.90
2018-07-04T08:18:52.756Z,32.90
2018-07-04T08:21:32.537Z,32.80
2018-07-04T08:24:12.017Z,32.70
2018-07-04T08:26:51.855Z,32.70
2018-07-04T08:29:31.401Z,32.80
2018-07-04T08:32:11.189Z,33.00
2018-07-04T08:34:50.987Z,33.00
2018-07-04T08:37:30.662Z,32.90
2018-07-04T08:40:11.205Z,33.00
2018-07-04T08:42:51.125Z,33.10
2018-07-04T08:45:30.837Z,33.00
2018-07-04T08:48:10.353Z,33.10
2018-07-04T08:50:49.903Z,33.20
2018-07-04T08:53:29.397Z,33.10
2018-07-04T08:56:09.097Z,33.10
2018-07-04T08:58:48.857Z,33.10
2018-07-04T09:01:28.733Z,32.90
2018-07-04T09:04:08.277Z,32.70
2018-07-04T09:06:47.943Z,32.40
2018-07-04T09:09:27.556Z,32.40
2018-07-04T09:12:07.042Z,32.40
2018-07-04T09:14:46.584Z,32.60
2018-07-04T09:17:26.269Z,32.70
2018-07-04T09:20:06.085Z,32.70
2018-07-04T09:22:45.803Z,32.80
2018-07-04T09:25:26.308Z,32.80
2018-07-04T09:28:07.313Z,32.80
2018-07-04T09:30:47.091Z,33.00
2018-07-04T09:33:26.730Z,33.00
2018-07-04T09:36:06.282Z,33.10
2018-07-04T09:38:45.831Z,33.20
2018-07-04T09:41:25.583Z,33.40
2018-07-04T09:44:05.361Z,33.50
2018-07-04T09:46:45.218Z,33.50
2018-07-04T09:49:25.050Z,33.70
2018-07-04T09:52:04.782Z,33.80
2018-07-04T09:54:45.357Z,33.80
2018-07-04T09:57:25.130Z,33.80
2018-07-04T10:00:04.734Z,33.90
2018-07-04T10:02:44.397Z,34.00
2018-07-04T10:05:23.987Z,34.20
2018-07-04T10:08:03.746Z,34.20
2018-07-04T10:13:17.392Z,34.40
2018-07-04T10:15:57.241Z,34.60
2018-07-04T10:18:38.083Z,34.70
2018-07-04T10:21:17.593Z,34.70
2018-07-04T10:23:57.109Z,34.80
2018-07-04T10:26:36.800Z,34.80
2018-07-04T10:29:16.511Z,34.90
2018-07-04T10:31:56.039Z,35.00
2018-07-04T10:34:35.653Z,35.00
2018-07-04T10:39:50.353Z,34.90
2018-07-04T10:42:30.186Z,34.90
2018-07-04T10:45:10.488Z,35.00
2018-07-04T10:47:50.078Z,35.20
2018-07-04T10:53:03.712Z,35.60
2018-07-04T10:55:43.669Z,35.70
2018-07-04T10:58:23.204Z,35.70
2018-07-04T11:01:02.961Z,35.80
2018-07-04T11:06:16.468Z,35.90
2018-07-04T11:08:55.981Z,36.00
2018-07-04T11:11:36.676Z,35.90
2018-07-04T11:14:16.155Z,36.00
2018-07-04T11:19:29.737Z,36.00
2018-07-04T11:22:09.434Z,35.80
2018-07-04T11:24:49.869Z,36.00
2018-07-04T11:27:29.333Z,36.00
2018-07-04T11:30:08.889Z,36.10
2018-07-04T11:32:48.498Z,36.30
2018-07-04T11:35:28.213Z,36.30
2018-07-04T11:38:08.089Z,36.30
2018-07-04T11:40:48.750Z,36.10
2018-07-04T11:43:28.503Z,36.20
2018-07-04T11:45:59.042Z,36.10
2018-07-04T11:48:26.436Z,36.10
2018-07-04T11:50:54.613Z,36.00
2018-07-04T11:53:22.203Z,35.90
2018-07-04T11:55:49.558Z,36.00
2018-07-04T11:58:17.152Z,36.00
2018-07-04T12:00:46.557Z,36.20
2018-07-04T12:03:20.565Z,36.30
2018-07-04T12:06:00.240Z,36.40
2018-07-04T12:08:27.596Z,36.40
2018-07-04T12:10:55.324Z,36.40
2018-07-04T12:13:23.892Z,36.40
2018-07-04T12:15:52.484Z,36.20
2018-07-04T12:18:19.823Z,36.00
2018-07-04T12:20:47.229Z,35.80
2018-07-04T12:23:14.913Z,35.90
2018-07-04T12:25:43.427Z,35.90
2018-07-04T12:28:11.186Z,36.00
2018-07-04T12:30:38.589Z,36.10
2018-07-04T12:33:05.941Z,36.00
2018-07-04T12:35:33.335Z,35.90
2018-07-04T12:38:00.818Z,35.70
2018-07-04T12:40:28.147Z,35.70
2018-07-04T12:45:23.617Z,35.60
2018-07-04T12:47:51.469Z,35.70
2018-07-04T12:50:27.520Z,35.80
2018-07-04T12:52:55.160Z,35.80
2018-07-04T12:55:39.241Z,35.80
2018-07-04T12:58:19.832Z,35.80
2018-07-04T13:00:59.506Z,35.70
2018-07-04T13:03:39.042Z,35.70
2018-07-04T13:06:18.687Z,35.70
2018-07-04T13:08:58.333Z,35.70
2018-07-04T13:11:37.985Z,35.60
2018-07-04T13:14:17.539Z,35.60
2018-07-04T13:16:57.220Z,35.60
2018-07-04T13:19:36.861Z,35.60
2018-07-04T13:22:16.274Z,35.60
2018-07-04T13:24:55.996Z,35.70
2018-07-04T13:27:35.632Z,35.60
2018-07-04T13:30:15.293Z,35.50
2018-07-04T13:32:55.083Z,35.50
2018-07-04T13:35:34.913Z,35.50
2018-07-04T13:38:14.893Z,35.50
2018-07-04T13:40:54.891Z,35.50
2018-07-04T13:43:34.344Z,35.40
2018-07-04T13:46:13.950Z,35.30
2018-07-04T13:48:53.587Z,35.30
2018-07-04T13:52:05.472Z,35.20
2018-07-04T13:54:44.965Z,35.30
2018-07-04T14:01:03.348Z,35.10
2018-07-04T14:03:42.999Z,35.00
2018-07-04T14:06:22.713Z,35.00
2018-07-04T14:09:02.157Z,34.90
2018-07-04T14:11:41.672Z,34.90
2018-07-04T14:14:21.054Z,34.80
2018-07-04T14:17:00.412Z,34.80
2018-07-04T14:19:39.767Z,34.70
2018-07-04T14:22:19.436Z,34.70
2018-07-04T14:24:58.800Z,34.80
2018-07-04T14:27:38.161Z,34.80
2018-07-04T14:30:17.563Z,34.90
2018-07-04T14:32:58.713Z,34.90
2018-07-04T14:35:38.122Z,34.80
2018-07-04T14:38:17.624Z,34.80
2018-07-04T14:40:57.357Z,34.70
2018-07-04T14:43:38.972Z,34.60
2018-07-04T14:46:18.525Z,34.50
2018-07-04T14:48:58.269Z,34.40
2018-07-04T14:51:37.880Z,34.30
2018-07-04T14:54:17.443Z,34.10
2018-07-04T14:56:56.979Z,33.90
2018-07-04T14:59:36.435Z,33.80
2018-07-04T15:04:50.112Z,33.50
2018-07-04T15:07:29.494Z,33.40
2018-07-04T15:10:08.888Z,33.40
2018-07-04T15:12:48.433Z,33.30
2018-07-04T15:15:30.171Z,33.30
2018-07-04T15:18:09.796Z,33.20
2018-07-04T15:20:49.466Z,33.10
2018-07-04T15:26:02.467Z,32.70
2018-07-04T15:28:41.907Z,32.60
2018-07-04T15:31:21.392Z,32.50
2018-07-04T15:34:00.833Z,32.30
2018-07-04T15:39:13.881Z,32.10
2018-07-04T15:41:57.981Z,32.10
2018-07-04T15:44:38.517Z,32.00
2018-07-04T15:47:17.927Z,32.00
2018-07-04T15:49:57.209Z,31.80
2018-07-04T15:52:36.553Z,31.80
2018-07-04T15:55:16.042Z,31.80
2018-07-04T15:57:55.442Z,31.80
2018-07-04T16:00:35.024Z,31.80
2018-07-04T16:03:14.636Z,31.70
2018-07-04T16:08:27.716Z,31.60
2018-07-04T16:11:07.083Z,31.50
2018-07-04T16:13:47.257Z,31.40
2018-07-04T16:16:26.828Z,31.30
2018-07-04T16:19:06.364Z,31.20
2018-07-04T16:21:45.784Z,31.20
2018-07-04T16:26:59.488Z,31.20
2018-07-04T16:29:39.552Z,31.10
2018-07-04T16:32:19.048Z,31.00
2018-07-04T16:34:58.448Z,30.80
2018-07-04T16:37:39.132Z,30.70
2018-07-04T16:40:19.835Z,30.70
2018-07-04T16:42:59.208Z,30.60
2018-07-04T16:45:38.689Z,30.50
2018-07-04T16:48:19.053Z,30.50
2018-07-04T16:50:58.729Z,30.50
2018-07-04T16:53:38.316Z,30.40
2018-07-04T16:56:18.852Z,30.30
2018-07-04T16:58:58.493Z,30.20
2018-07-04T17:01:37.884Z,30.20
2018-07-04T17:04:17.271Z,30.10
2018-07-04T17:06:56.597Z,30.10
2018-07-04T17:09:36.075Z,30.00
2018-07-04T17:12:15.588Z,30.10
2018-07-04T17:14:55.200Z,30.00
2018-07-04T17:17:34.783Z,29.80
2018-07-04T17:20:14.453Z,29.70
2018-07-04T17:22:55.081Z,29.70
2018-07-04T17:25:34.645Z,29.70
2018-07-04T17:28:14.276Z,29.70
2018-07-04T17:30:54.495Z,29.70
2018-07-04T17:33:33.951Z,29.70
2018-07-04T17:36:13.368Z,29.60
2018-07-04T17:38:53.488Z,29.50
2018-07-04T17:44:06.476Z,29.50
2018-07-04T17:46:45.951Z,29.50
2018-07-04T17:49:25.430Z,29.40
2018-07-04T17:52:04.798Z,29.40
2018-07-04T17:54:44.343Z,29.30
2018-07-04T17:57:23.740Z,29.30
2018-07-04T18:00:03.341Z,29.20
2018-07-04T18:02:42.685Z,29.00
2018-07-04T18:05:22.124Z,28.90
2018-07-04T18:08:01.532Z,28.80
2018-07-04T18:10:41.089Z,28.60
2018-07-04T18:13:20.654Z,28.50
2018-07-04T18:16:00.082Z,28.50
2018-07-04T18:18:39.525Z,28.50
2018-07-04T18:21:24.920Z,28.40
2018-07-04T18:24:06.621Z,28.40
2018-07-04T18:26:46.125Z,28.30
2018-07-04T18:29:25.731Z,28.30
2018-07-04T18:32:06.070Z,28.30
2018-07-04T18:34:45.509Z,28.10
2018-07-04T18:37:25.597Z,28.10
2018-07-04T18:40:04.865Z,28.10
2018-07-04T18:42:45.872Z,28.00
2018-07-04T18:45:25.408Z,27.90
2018-07-04T18:48:05.675Z,27.80
2018-07-04T18:50:45.543Z,27.80
2018-07-04T18:53:26.002Z,27.70
2018-07-04T18:56:13.543Z,27.60
2018-07-04T19:41:11.196Z,27.40
2018-07-04T19:43:51.904Z,26.20
2018-07-04T19:46:33.776Z,26.10
2018-07-04T19:49:19.724Z,26.00
2018-07-04T19:52:01.935Z,25.90
2018-07-04T19:54:41.300Z,25.90
2018-07-04T19:57:22.474Z,25.80
2018-07-04T20:00:03.240Z,25.80
2018-07-04T20:02:42.803Z,25.80
2018-07-04T20:05:22.316Z,25.80
2018-07-04T20:08:01.741Z,25.80
2018-07-04T20:10:41.133Z,25.70
2018-07-04T20:13:20.499Z,25.60
2018-07-04T20:16:00.613Z,25.50
2018-07-04T20:18:40.356Z,25.40
2018-07-04T20:21:20.709Z,25.40
2018-07-04T20:24:00.138Z,25.20
2018-07-04T20:26:39.672Z,25.20
2018-07-04T20:29:19.265Z,25.00
2018-07-04T20:31:59.356Z,25.10
2018-07-04T20:37:12.352Z,25.10
2018-07-04T20:39:51.837Z,25.10
2018-07-04T20:42:31.256Z,25.10
2018-07-04T20:45:10.796Z,25.00
2018-07-04T20:47:50.361Z,25.10
2018-07-04T20:50:29.904Z,25.00
2018-07-04T20:53:09.394Z,25.00
2018-07-04T20:55:49.716Z,25.00
2018-07-04T20:58:29.788Z,25.00
2018-07-04T21:01:17.728Z,25.00
2018-07-04T21:03:57.504Z,24.90
2018-07-04T21:06:37.970Z,24.90
2018-07-04T21:09:17.477Z,24.90
2018-07-04T21:11:56.896Z,24.90
2018-07-04T21:14:36.448Z,25.00
2018-07-04T21:17:15.880Z,25.10
2018-07-04T21:19:55.376Z,25.10
2018-07-04T21:22:34.704Z,25.10
2018-07-04T21:25:14.296Z,25.10
2018-07-04T21:27:53.768Z,25.20
2018-07-04T21:30:33.252Z,25.30
2018-07-04T21:33:12.780Z,25.40
2018-07-04T21:35:52.245Z,25.40
2018-07-04T21:38:31.704Z,25.40
2018-07-04T21:41:11.240Z,25.50
2018-07-04T21:43:50.761Z,25.50
2018-07-04T21:46:30.152Z,25.60
2018-07-04T21:49:09.605Z,25.60
2018-07-04T21:51:49.023Z,25.60
2018-07-04T21:54:28.625Z,25.50
2018-07-04T21:57:08.246Z,25.50
2018-07-04T21:59:47.656Z,25.50
2018-07-04T22:02:27.232Z,25.40
2018-07-04T22:05:06.763Z,25.50
2018-07-04T22:07:46.178Z,25.60
2018-07-04T22:10:26.667Z,25.60
2018-07-04T22:13:06.174Z,25.50
2018-07-04T22:15:45.721Z,25.50
2018-07-04T22:20:58.797Z,25.40
2018-07-04T22:23:38.353Z,25.30
2018-07-04T22:26:18.026Z,25.30
2018-07-04T22:28:57.556Z,25.30
2018-07-04T22:31:37.201Z,25.20
2018-07-04T22:34:16.719Z,25.10
2018-07-04T22:36:56.169Z,25.00
2018-07-04T22:39:36.736Z,25.10
2018-07-04T22:42:16.476Z,25.10
2018-07-04T22:44:56.001Z,25.10
2018-07-04T22:47:35.328Z,25.20
2018-07-04T22:50:14.749Z,25.20
2018-07-04T22:52:54.164Z,25.10
2018-07-04T22:55:33.765Z,25.10
2018-07-04T22:58:13.381Z,25.10
2018-07-04T23:00:53.032Z,25.10
2018-07-04T23:03:32.516Z,25.10
2018-07-04T23:06:12.052Z,25.10
2018-07-04T23:08:51.707Z,25.10
2018-07-04T23:11:31.260Z,25.00
2018-07-04T23:14:10.682Z,24.90
2018-07-04T23:16:50.055Z,24.90
2018-07-04T23:19:29.525Z,24.80
2018-07-04T23:22:09.092Z,24.80
2018-07-04T23:24:48.672Z,24.70
2018-07-04T23:27:28.087Z,24.70
2018-07-04T23:30:07.819Z,24.60
2018-07-04T23:32:47.145Z,24.40
2018-07-04T23:35:26.742Z,24.40
2018-07-04T23:38:07.960Z,24.40
2018-07-04T23:40:47.365Z,24.40
2018-07-04T23:43:26.768Z,24.30
2018-07-04T23:46:06.416Z,24.30
2018-07-04T23:48:45.718Z,24.20
2018-07-04T23:51:26.161Z,24.10
2018-07-04T23:54:05.736Z,24.10
2018-07-04T23:56:45.268Z,24.10
2018-07-04T23:59:24.668Z,24.10
